createdAt,value
2023-01-13T00:00:03.619Z,99.99
2023-01-13T00:01:03.603Z,99.99
2023-01-13T00:02:03.630Z,99.99
2023-01-13T00:03:03.571Z,99.99
2023-01-13T00:04:03.567Z,99.99
2023-01-13T00:05:03.667Z,99.99
2023-01-13T00:06:03.571Z,99.99
2023-01-13T00:07:03.541Z,99.99
2023-01-13T00:08:03.526Z,99.99
2023-01-13T00:09:03.508Z,99.99
2023-01-13T00:10:03.500Z,99.99
2023-01-13T00:11:03.524Z,99.99
2023-01-13T00:12:03.478Z,99.99
2023-01-13T00:13:03.476Z,99.99
2023-01-13T00:14:03.467Z,99.99
2023-01-13T00:15:03.456Z,99.99
2023-01-13T00:16:03.509Z,99.99
2023-01-13T00:17:03.475Z,99.99
2023-01-13T00:18:03.414Z,99.99
2023-01-13T00:19:03.411Z,99.99
2023-01-13T00:20:03.401Z,99.96
2023-01-13T00:21:03.373Z,99.55
2023-01-13T00:22:03.393Z,99.15
2023-01-13T00:23:03.368Z,98.74
2023-01-13T00:24:03.349Z,98.53
2023-01-13T00:25:03.356Z,98.43
2023-01-13T00:26:03.331Z,98.43
2023-01-13T00:27:03.353Z,98.22
2023-01-13T00:28:03.315Z,97.97
2023-01-13T00:29:03.311Z,97.81
2023-01-13T00:30:03.311Z,97.77
2023-01-13T00:31:03.292Z,97.77
2023-01-13T00:32:03.263Z,97.71
2023-01-13T00:33:03.266Z,97.61
2023-01-13T00:34:03.254Z,97.50
2023-01-13T00:35:03.247Z,97.61
2023-01-13T00:36:03.218Z,97.50
2023-01-13T00:37:03.227Z,97.40
2023-01-13T00:38:03.200Z,97.40
2023-01-13T00:39:03.237Z,97.30
2023-01-13T00:40:03.171Z,97.09
2023-01-13T00:41:03.162Z,96.79
2023-01-13T00:42:03.145Z,96.69
2023-01-13T00:43:03.135Z,96.69
2023-01-13T00:44:03.128Z,96.79
2023-01-13T00:45:03.141Z,96.38
2023-01-13T00:46:03.143Z,96.38
2023-01-13T00:47:03.092Z,96.38
2023-01-13T00:48:03.088Z,96.38
2023-01-13T00:49:03.093Z,96.38
2023-01-13T00:50:03.064Z,96.38
2023-01-13T00:51:03.088Z,96.48
2023-01-13T00:52:03.027Z,96.28
2023-01-13T00:53:03.029Z,96.07
2023-01-13T00:54:03.026Z,95.97
2023-01-13T00:55:03.015Z,95.66
2023-01-13T00:56:02.992Z,95.56
2023-01-13T00:57:03.039Z,95.46
2023-01-13T00:58:02.983Z,95.46
2023-01-13T00:59:02.964Z,95.36
2023-01-13T01:00:02.967Z,95.15
2023-01-13T01:01:03.054Z,95.05
2023-01-13T01:02:03.042Z,94.95
2023-01-13T01:03:02.945Z,94.64
2023-01-13T01:04:02.915Z,94.33
2023-01-13T01:05:02.892Z,94.02
2023-01-13T01:06:02.911Z,93.92
2023-01-13T01:07:02.907Z,93.92
2023-01-13T01:08:02.875Z,94.02
2023-01-13T01:09:02.850Z,94.12
2023-01-13T01:10:02.838Z,94.23
2023-01-13T01:11:02.835Z,94.12
2023-01-13T01:12:02.865Z,94.23
2023-01-13T01:13:02.794Z,94.23
2023-01-13T01:14:02.863Z,94.23
2023-01-13T01:15:02.775Z,94.23
2023-01-13T01:16:02.757Z,94.12
2023-01-13T01:17:02.763Z,93.92
2023-01-13T01:18:02.746Z,93.82
2023-01-13T01:19:02.802Z,93.92
2023-01-13T01:20:02.742Z,93.62
2023-01-13T01:21:02.732Z,93.51
2023-01-13T01:22:02.736Z,93.51
2023-01-13T01:23:02.712Z,93.10
2023-01-13T01:24:02.711Z,92.90
2023-01-13T01:25:02.706Z,92.59
2023-01-13T01:26:02.663Z,92.28
2023-01-13T01:27:02.639Z,92.18
2023-01-13T01:28:02.650Z,92.08
2023-01-13T01:29:02.623Z,91.67
2023-01-13T01:30:03.557Z,91.77
2023-01-13T01:31:02.666Z,91.87
2023-01-13T01:32:02.625Z,91.77
2023-01-13T01:33:02.637Z,91.97
2023-01-13T01:34:02.577Z,92.18
2023-01-13T01:35:02.606Z,92.08
2023-01-13T01:36:02.559Z,92.18
2023-01-13T01:37:02.593Z,92.28
2023-01-13T01:38:02.537Z,92.18
2023-01-13T01:39:02.513Z,92.18
2023-01-13T01:40:02.522Z,91.71
2023-01-13T01:41:02.521Z,91.26
2023-01-13T01:42:02.501Z,91.16
2023-01-13T01:43:02.474Z,91.26
2023-01-13T01:44:02.659Z,91.16
2023-01-13T01:45:02.472Z,90.95
2023-01-13T01:46:02.432Z,90.84
2023-01-13T01:47:02.477Z,90.95
2023-01-13T01:48:02.433Z,90.79
2023-01-13T01:49:02.398Z,90.44
2023-01-13T01:50:02.399Z,90.69
2023-01-13T01:51:02.397Z,90.69
2023-01-13T01:52:02.392Z,90.58
2023-01-13T01:53:02.357Z,90.69
2023-01-13T01:54:02.361Z,90.69
2023-01-13T01:55:02.373Z,90.69
2023-01-13T01:56:02.324Z,90.69
2023-01-13T01:57:02.349Z,90.58
2023-01-13T01:58:02.307Z,90.58
2023-01-13T01:59:02.288Z,90.58
2023-01-13T02:00:02.298Z,90.69
2023-01-13T02:01:02.426Z,90.89
2023-01-13T02:02:02.361Z,91.09
2023-01-13T02:03:02.281Z,90.99
2023-01-13T02:04:02.241Z,90.99
2023-01-13T02:05:02.219Z,90.99
2023-01-13T02:06:02.227Z,90.69
2023-01-13T02:07:02.216Z,90.37
2023-01-13T02:08:02.192Z,90.37
2023-01-13T02:09:02.220Z,90.62
2023-01-13T02:10:02.160Z,90.73
2023-01-13T02:11:02.157Z,90.62
2023-01-13T02:12:02.160Z,90.52
2023-01-13T02:13:02.174Z,90.42
2023-01-13T02:14:02.131Z,90.11
2023-01-13T02:15:02.111Z,89.60
2023-01-13T02:16:02.185Z,89.39
2023-01-13T02:17:02.102Z,89.39
2023-01-13T02:18:02.079Z,89.39
2023-01-13T02:19:02.090Z,89.29
2023-01-13T02:20:02.061Z,89.09
2023-01-13T02:21:02.067Z,88.98
2023-01-13T02:22:02.022Z,88.78
2023-01-13T02:23:02.018Z,88.68
2023-01-13T02:24:02.049Z,88.57
2023-01-13T02:25:02.011Z,88.47
2023-01-13T02:26:02.001Z,88.47
2023-01-13T02:27:01.981Z,88.17
2023-01-13T02:28:01.954Z,87.96
2023-01-13T02:29:01.980Z,87.85
2023-01-13T02:30:01.972Z,87.96
2023-01-13T02:31:01.935Z,87.34
2023-01-13T02:32:01.919Z,86.93
2023-01-13T02:33:01.902Z,86.83
2023-01-13T02:34:01.885Z,86.63
2023-01-13T02:35:01.906Z,86.63
2023-01-13T02:36:01.916Z,86.52
2023-01-13T02:37:01.872Z,86.63
2023-01-13T02:38:01.885Z,86.22
2023-01-13T02:39:01.858Z,86.11
2023-01-13T02:40:01.855Z,85.80
2023-01-13T02:41:01.822Z,85.60
2023-01-13T02:42:01.862Z,85.71
2023-01-13T02:43:01.804Z,85.30
2023-01-13T02:44:01.793Z,85.19
2023-01-13T02:45:01.788Z,84.99
2023-01-13T02:46:01.816Z,84.47
2023-01-13T02:47:01.783Z,84.37
2023-01-13T02:48:01.742Z,84.37
2023-01-13T02:49:01.731Z,84.27
2023-01-13T02:50:01.740Z,83.96
2023-01-13T02:51:01.758Z,83.45
2023-01-13T02:52:01.697Z,83.45
2023-01-13T02:53:01.698Z,83.45
2023-01-13T02:54:01.742Z,83.25
2023-01-13T02:55:01.709Z,83.34
2023-01-13T02:56:02.497Z,83.45
2023-01-13T02:57:01.653Z,83.59
2023-01-13T02:58:01.662Z,83.49
2023-01-13T02:59:01.622Z,83.28
2023-01-13T03:00:01.628Z,83.28
2023-01-13T03:01:01.769Z,83.07
2023-01-13T03:02:01.759Z,82.87
2023-01-13T03:03:01.663Z,82.67
2023-01-13T03:04:01.572Z,82.56
2023-01-13T03:05:01.575Z,82.87
2023-01-13T03:06:01.580Z,82.97
2023-01-13T03:07:01.541Z,83.18
2023-01-13T03:08:02.331Z,83.18
2023-01-13T03:09:01.557Z,83.32
2023-01-13T03:10:01.509Z,83.22
2023-01-13T03:11:01.515Z,83.12
2023-01-13T03:12:01.546Z,83.01
2023-01-13T03:13:01.476Z,83.22
2023-01-13T03:14:01.475Z,83.22
2023-01-13T03:15:01.855Z,83.53
2023-01-13T03:16:01.452Z,83.63
2023-01-13T03:17:01.425Z,83.83
2023-01-13T03:18:01.435Z,83.83
2023-01-13T03:19:01.420Z,83.83
2023-01-13T03:20:01.463Z,84.08
2023-01-13T03:21:01.382Z,84.28
2023-01-13T03:22:01.402Z,84.39
2023-01-13T03:23:01.363Z,84.28
2023-01-13T03:24:01.358Z,84.28
2023-01-13T03:25:01.352Z,84.28
2023-01-13T03:26:01.348Z,84.39
2023-01-13T03:27:01.329Z,84.42
2023-01-13T03:28:01.312Z,84.32
2023-01-13T03:29:01.993Z,84.12
2023-01-13T03:30:01.303Z,84.12
2023-01-13T03:31:01.679Z,84.22
2023-01-13T03:32:01.258Z,84.22
2023-01-13T03:33:01.288Z,84.12
2023-01-13T03:34:01.267Z,84.22
2023-01-13T03:35:01.230Z,84.32
2023-01-13T03:36:01.249Z,84.36
2023-01-13T03:37:01.212Z,84.36
2023-01-13T03:38:01.211Z,84.26
2023-01-13T03:39:01.216Z,84.05
2023-01-13T03:40:01.253Z,83.95
2023-01-13T03:41:01.409Z,84.05
2023-01-13T03:42:01.175Z,84.05
2023-01-13T03:43:01.144Z,84.16
2023-01-13T03:44:01.167Z,83.95
2023-01-13T03:45:01.128Z,83.95
2023-01-13T03:46:01.145Z,83.89
2023-01-13T03:47:01.104Z,83.78
2023-01-13T03:48:01.085Z,83.78
2023-01-13T03:49:02.041Z,83.99
2023-01-13T03:50:01.114Z,84.09
2023-01-13T03:51:01.067Z,84.30
2023-01-13T03:52:01.257Z,84.50
2023-01-13T03:53:01.031Z,84.50
2023-01-13T03:54:01.079Z,84.61
2023-01-13T03:55:01.047Z,84.61
2023-01-13T03:56:01.005Z,84.61
2023-01-13T03:57:01.087Z,84.61
2023-01-13T03:58:01.110Z,84.61
2023-01-13T03:59:01.434Z,84.71
2023-01-13T04:00:00.980Z,84.81
2023-01-13T04:01:01.430Z,85.02
2023-01-13T04:02:01.141Z,85.22
2023-01-13T04:03:02.396Z,85.22
2023-01-13T04:04:00.963Z,85.22
2023-01-13T04:05:00.925Z,85.22
2023-01-13T04:06:00.897Z,85.33
2023-01-13T04:07:01.000Z,85.43
2023-01-13T04:08:01.038Z,85.43
2023-01-13T04:09:01.757Z,85.43
2023-01-13T04:10:02.028Z,85.53
2023-01-13T04:11:02.287Z,85.53
2023-01-13T04:12:00.977Z,85.33
2023-01-13T04:13:01.090Z,85.43
2023-01-13T04:14:02.260Z,85.43
2023-01-13T04:15:00.800Z,85.53
2023-01-13T04:16:00.956Z,85.63
2023-01-13T04:17:01.474Z,85.43
2023-01-13T04:18:00.772Z,85.43
2023-01-13T04:19:00.910Z,85.33
2023-01-13T04:20:00.735Z,85.43
2023-01-13T04:21:01.527Z,85.53
2023-01-13T04:22:00.715Z,85.63
2023-01-13T04:23:00.732Z,85.43
2023-01-13T04:24:00.692Z,85.43
2023-01-13T04:25:00.690Z,85.43
2023-01-13T04:26:00.683Z,85.43
2023-01-13T04:27:00.653Z,85.43
2023-01-13T04:28:00.895Z,85.33
2023-01-13T04:29:00.712Z,85.33
2023-01-13T04:30:00.769Z,85.28
2023-01-13T04:31:00.648Z,85.08
2023-01-13T04:32:00.606Z,84.98
2023-01-13T04:33:00.630Z,85.08
2023-01-13T04:34:00.618Z,85.08
2023-01-13T04:35:01.080Z,85.08
2023-01-13T04:36:00.607Z,85.08
2023-01-13T04:37:00.572Z,85.08
2023-01-13T04:38:00.546Z,84.88
2023-01-13T04:39:00.537Z,84.88
2023-01-13T04:40:00.553Z,84.77
2023-01-13T04:41:00.504Z,84.67
2023-01-13T04:42:01.408Z,84.67
2023-01-13T04:43:00.521Z,84.77
2023-01-13T04:44:00.469Z,84.77
2023-01-13T04:45:00.486Z,84.88
2023-01-13T04:46:00.490Z,84.56
2023-01-13T04:47:00.460Z,84.42
2023-01-13T04:48:00.449Z,84.42
2023-01-13T04:49:00.440Z,84.53
2023-01-13T04:50:00.403Z,84.42
2023-01-13T04:51:00.401Z,84.42
2023-01-13T04:52:00.423Z,84.42
2023-01-13T04:53:00.737Z,84.63
2023-01-13T04:54:00.378Z,84.63
2023-01-13T04:55:00.349Z,84.74
2023-01-13T04:56:00.464Z,84.84
2023-01-13T04:57:00.356Z,84.84
2023-01-13T04:58:00.323Z,84.74
2023-01-13T04:59:00.329Z,84.42
2023-01-13T05:00:00.324Z,84.42
2023-01-13T05:01:00.324Z,84.63
2023-01-13T05:02:00.418Z,84.42
2023-01-13T05:03:00.283Z,84.42
2023-01-13T05:04:00.271Z,84.42
2023-01-13T05:05:00.282Z,84.32
2023-01-13T05:06:00.243Z,84.42
2023-01-13T05:07:00.228Z,84.42
2023-01-13T05:08:00.239Z,84.53
2023-01-13T05:09:00.318Z,84.63
2023-01-13T05:10:00.322Z,84.63
2023-01-13T05:11:00.180Z,84.63
2023-01-13T05:12:00.204Z,84.53
2023-01-13T05:13:00.173Z,84.42
2023-01-13T05:14:00.149Z,84.42
2023-01-13T05:15:00.163Z,84.32
2023-01-13T05:16:00.254Z,84.32
2023-01-13T05:17:00.138Z,84.22
2023-01-13T05:18:00.127Z,84.22
2023-01-13T05:19:00.084Z,84.42
2023-01-13T05:20:00.113Z,83.81
2023-01-13T05:21:00.063Z,83.70
2023-01-13T05:22:00.058Z,83.61
2023-01-13T05:23:00.067Z,83.50
2023-01-13T05:24:00.422Z,83.61
2023-01-13T05:25:00.042Z,83.61
2023-01-13T05:26:00.048Z,83.81
2023-01-13T05:27:00.015Z,83.81
2023-01-13T05:28:00.002Z,83.61
2023-01-13T05:29:00.010Z,83.40
2023-01-13T05:29:59.980Z,83.09
2023-01-13T05:30:59.988Z,83.09
2023-01-13T05:31:59.949Z,83.19
2023-01-13T05:32:59.942Z,83.09
2023-01-13T05:33:59.982Z,82.99
2023-01-13T05:34:59.994Z,82.89
2023-01-13T05:35:59.959Z,82.99
2023-01-13T05:36:59.892Z,83.19
2023-01-13T05:37:59.877Z,83.40
2023-01-13T05:38:59.887Z,83.50
2023-01-13T05:39:59.888Z,83.50
2023-01-13T05:40:59.862Z,83.70
2023-01-13T05:41:59.849Z,83.70
2023-01-13T05:42:59.857Z,83.81
2023-01-13T05:43:59.823Z,83.81
2023-01-13T05:44:59.805Z,83.95
2023-01-13T05:45:59.823Z,83.95
2023-01-13T05:46:59.793Z,84.16
2023-01-13T05:47:59.797Z,84.47
2023-01-13T05:48:59.767Z,84.56
2023-01-13T05:49:59.749Z,84.88
2023-01-13T05:50:59.762Z,85.08
2023-01-13T05:51:59.728Z,85.18
2023-01-13T05:52:59.709Z,85.28
2023-01-13T05:53:59.700Z,85.39
2023-01-13T05:54:59.698Z,85.28
2023-01-13T05:55:59.685Z,85.39
2023-01-13T05:56:59.697Z,85.60
2023-01-13T05:57:59.661Z,85.70
2023-01-13T05:58:59.658Z,85.80
2023-01-13T05:59:59.670Z,85.90
2023-01-13T06:00:59.673Z,85.90
2023-01-13T06:01:59.634Z,85.90
2023-01-13T06:02:59.689Z,86.11
2023-01-13T06:03:59.676Z,86.21
2023-01-13T06:04:59.584Z,86.32
2023-01-13T06:05:59.584Z,86.32
2023-01-13T06:06:59.560Z,86.35
2023-01-13T06:07:59.561Z,86.46
2023-01-13T06:08:59.564Z,86.46
2023-01-13T06:09:59.535Z,86.35
2023-01-13T06:10:59.508Z,86.25
2023-01-13T06:11:59.552Z,86.15
2023-01-13T06:12:59.492Z,86.25
2023-01-13T06:13:59.567Z,86.05
2023-01-13T06:14:59.476Z,85.94
2023-01-13T06:15:59.605Z,85.94
2023-01-13T06:16:59.449Z,85.74
2023-01-13T06:17:59.488Z,85.84
2023-01-13T06:18:59.438Z,85.84
2023-01-13T06:19:59.413Z,85.84
2023-01-13T06:20:59.409Z,85.84
2023-01-13T06:21:59.388Z,85.74
2023-01-13T06:22:59.392Z,85.53
2023-01-13T06:23:59.410Z,85.43
2023-01-13T06:24:59.385Z,85.43
2023-01-13T06:25:59.357Z,85.12
2023-01-13T06:26:59.349Z,85.12
2023-01-13T06:27:59.339Z,85.02
2023-01-13T06:28:59.320Z,85.02
2023-01-13T06:29:59.359Z,85.02
2023-01-13T06:30:59.333Z,84.91
2023-01-13T06:31:59.287Z,85.02
2023-01-13T06:32:59.295Z,85.02
2023-01-13T06:33:59.275Z,85.02
2023-01-13T06:34:59.254Z,84.91
2023-01-13T06:35:59.261Z,84.71
2023-01-13T06:36:59.261Z,84.71
2023-01-13T06:37:59.223Z,84.61
2023-01-13T06:38:59.221Z,84.50
2023-01-13T06:39:59.197Z,84.40
2023-01-13T06:40:59.212Z,84.20
2023-01-13T06:41:59.193Z,84.30
2023-01-13T06:42:59.177Z,84.30
2023-01-13T06:43:59.157Z,84.30
2023-01-13T06:44:59.170Z,84.20
2023-01-13T06:45:59.384Z,84.40
2023-01-13T06:46:59.175Z,84.20
2023-01-13T06:47:59.116Z,84.09
2023-01-13T06:48:59.104Z,84.20
2023-01-13T06:49:59.106Z,83.99
2023-01-13T06:50:59.081Z,83.68
2023-01-13T06:51:59.095Z,83.68
2023-01-13T06:52:59.062Z,83.58
2023-01-13T06:53:59.057Z,83.58
2023-01-13T06:54:59.042Z,83.37
2023-01-13T06:55:59.068Z,83.37
2023-01-13T06:56:59.026Z,83.37
2023-01-13T06:57:59.011Z,83.27
2023-01-13T06:58:58.995Z,83.37
2023-01-13T06:59:58.997Z,83.27
2023-01-13T07:00:59.127Z,83.27
2023-01-13T07:01:59.078Z,83.37
2023-01-13T07:02:59.003Z,83.48
2023-01-13T07:03:58.932Z,83.58
2023-01-13T07:04:58.958Z,83.58
2023-01-13T07:05:58.974Z,83.68
2023-01-13T07:06:58.923Z,83.68
2023-01-13T07:07:59.107Z,83.68
2023-01-13T07:08:58.947Z,83.68
2023-01-13T07:09:58.861Z,83.68
2023-01-13T07:10:58.859Z,83.78
2023-01-13T07:11:58.865Z,83.78
2023-01-13T07:12:58.840Z,83.78
2023-01-13T07:13:58.828Z,83.89
2023-01-13T07:14:58.869Z,84.09
2023-01-13T07:15:59.022Z,84.09
2023-01-13T07:16:58.815Z,84.09
2023-01-13T07:17:58.812Z,84.09
2023-01-13T07:18:58.795Z,84.23
2023-01-13T07:19:58.755Z,84.23
2023-01-13T07:20:58.746Z,84.23
2023-01-13T07:21:58.766Z,84.44
2023-01-13T07:22:58.746Z,84.44
2023-01-13T07:23:58.722Z,84.44
2023-01-13T07:24:58.742Z,84.54
2023-01-13T07:25:58.762Z,84.54
2023-01-13T07:26:58.682Z,84.54
2023-01-13T07:27:59.630Z,84.54
2023-01-13T07:28:58.663Z,84.54
2023-01-13T07:29:58.680Z,84.54
2023-01-13T07:30:58.652Z,84.44
2023-01-13T07:31:58.668Z,84.23
2023-01-13T07:32:58.635Z,83.99
2023-01-13T07:33:58.743Z,83.78
2023-01-13T07:34:58.609Z,83.58
2023-01-13T07:35:58.596Z,83.37
2023-01-13T07:36:58.612Z,83.27
2023-01-13T07:37:58.559Z,83.27
2023-01-13T07:38:58.593Z,82.86
2023-01-13T07:39:58.545Z,82.76
2023-01-13T07:40:58.537Z,82.34
2023-01-13T07:41:58.540Z,82.14
2023-01-13T07:42:58.516Z,81.83
2023-01-13T07:43:58.736Z,81.59
2023-01-13T07:44:58.500Z,81.69
2023-01-13T07:45:58.607Z,81.69
2023-01-13T07:46:58.470Z,81.59
2023-01-13T07:47:58.466Z,81.38
2023-01-13T07:48:58.441Z,81.38
2023-01-13T07:49:58.417Z,81.28
2023-01-13T07:50:58.833Z,81.38
2023-01-13T07:51:58.406Z,81.48
2023-01-13T07:52:58.409Z,81.28
2023-01-13T07:53:58.384Z,81.18
2023-01-13T07:54:58.365Z,81.18
2023-01-13T07:55:58.355Z,81.18
2023-01-13T07:56:58.408Z,81.18
2023-01-13T07:57:58.361Z,80.97
2023-01-13T07:58:58.329Z,81.07
2023-01-13T07:59:58.309Z,80.97
2023-01-13T08:00:58.548Z,80.97
2023-01-13T08:01:58.543Z,80.97
2023-01-13T08:02:58.335Z,80.87
2023-01-13T08:03:58.372Z,80.97
2023-01-13T08:04:58.269Z,81.07
2023-01-13T08:05:58.269Z,81.07
2023-01-13T08:06:58.242Z,81.07
2023-01-13T08:07:58.234Z,81.07
2023-01-13T08:08:58.251Z,80.87
2023-01-13T08:09:58.216Z,80.87
2023-01-13T08:10:58.218Z,80.87
2023-01-13T08:11:58.192Z,80.97
2023-01-13T08:12:58.202Z,81.07
2023-01-13T08:13:58.158Z,81.07
2023-01-13T08:14:58.194Z,80.87
2023-01-13T08:15:58.152Z,80.87
2023-01-13T08:16:58.176Z,80.97
2023-01-13T08:17:58.126Z,81.07
2023-01-13T08:18:58.112Z,81.28
2023-01-13T08:19:58.104Z,81.28
2023-01-13T08:20:58.123Z,81.38
2023-01-13T08:21:58.121Z,81.38
2023-01-13T08:22:58.076Z,81.28
2023-01-13T08:23:58.073Z,81.28
2023-01-13T08:24:58.410Z,81.28
2023-01-13T08:25:59.016Z,81.07
2023-01-13T08:26:58.044Z,80.97
2023-01-13T08:27:58.123Z,81.18
2023-01-13T08:28:58.033Z,81.28
2023-01-13T08:29:57.983Z,81.38
2023-01-13T08:30:58.026Z,81.38
2023-01-13T08:31:57.974Z,81.38
2023-01-13T08:32:57.963Z,81.38
2023-01-13T08:33:57.978Z,81.48
2023-01-13T08:34:57.943Z,81.59
2023-01-13T08:35:58.070Z,81.59
2023-01-13T08:36:58.030Z,81.69
2023-01-13T08:37:57.924Z,81.59
2023-01-13T08:38:57.897Z,81.59
2023-01-13T08:39:57.875Z,81.79
2023-01-13T08:40:57.904Z,81.79
2023-01-13T08:41:57.895Z,81.90
2023-01-13T08:42:57.895Z,82.10
2023-01-13T08:43:57.831Z,82.00
2023-01-13T08:44:57.819Z,81.90
2023-01-13T08:45:57.830Z,81.79
2023-01-13T08:46:57.810Z,81.90
2023-01-13T08:47:57.860Z,82.00
2023-01-13T08:48:57.789Z,82.00
2023-01-13T08:49:57.820Z,82.10
2023-01-13T08:50:57.761Z,82.31
2023-01-13T08:51:57.817Z,82.41
2023-01-13T08:52:57.722Z,82.31
2023-01-13T08:53:57.719Z,82.20
2023-01-13T08:54:57.718Z,82.31
2023-01-13T08:55:57.867Z,82.31
2023-01-13T08:56:57.748Z,82.51
2023-01-13T08:58:14.061Z,82.31
2023-01-13T08:58:58.677Z,82.20
2023-01-13T08:59:57.670Z,82.41
2023-01-13T09:00:57.857Z,82.20
2023-01-13T09:01:57.698Z,82.20
2023-01-13T09:02:57.633Z,82.27
2023-01-13T09:03:57.722Z,82.27
2023-01-13T09:04:57.607Z,82.17
2023-01-13T09:05:57.611Z,81.96
2023-01-13T09:06:57.576Z,82.17
2023-01-13T09:07:57.598Z,81.86
2023-01-13T09:08:57.578Z,81.86
2023-01-13T09:09:57.538Z,81.96
2023-01-13T09:10:57.541Z,82.06
2023-01-13T09:11:57.517Z,81.96
2023-01-13T09:12:57.522Z,82.06
2023-01-13T09:13:57.554Z,82.27
2023-01-13T09:14:57.564Z,82.06
2023-01-13T09:15:57.550Z,82.27
2023-01-13T09:16:57.466Z,82.37
2023-01-13T09:17:57.460Z,82.47
2023-01-13T09:18:57.451Z,82.62
2023-01-13T09:19:57.448Z,82.41
2023-01-13T09:20:57.434Z,82.20
2023-01-13T09:21:57.401Z,82.31
2023-01-13T09:22:57.430Z,82.10
2023-01-13T09:23:57.421Z,82.00
2023-01-13T09:24:57.376Z,82.31
2023-01-13T09:25:57.385Z,82.31
2023-01-13T09:26:57.369Z,82.31
2023-01-13T09:27:57.346Z,82.41
2023-01-13T09:28:57.370Z,82.31
2023-01-13T09:29:57.321Z,82.37
2023-01-13T09:30:57.338Z,82.37
2023-01-13T09:31:57.313Z,82.17
2023-01-13T09:32:57.304Z,82.06
2023-01-13T09:33:57.290Z,81.76
2023-01-13T09:34:57.277Z,81.96
2023-01-13T09:35:57.261Z,82.06
2023-01-13T09:36:57.281Z,82.06
2023-01-13T09:37:57.260Z,81.86
2023-01-13T09:38:57.249Z,81.76
2023-01-13T09:39:57.217Z,81.86
2023-01-13T09:40:57.222Z,82.06
2023-01-13T09:41:57.248Z,82.06
2023-01-13T09:42:57.197Z,81.96
2023-01-13T09:43:57.203Z,81.96
2023-01-13T09:44:57.168Z,82.06
2023-01-13T09:45:57.236Z,82.06
2023-01-13T09:46:57.167Z,81.86
2023-01-13T09:47:57.127Z,81.86
2023-01-13T09:48:57.132Z,81.76
2023-01-13T09:49:57.189Z,81.65
2023-01-13T09:50:57.129Z,81.65
2023-01-13T09:51:57.084Z,81.45
2023-01-13T09:52:57.065Z,81.24
2023-01-13T09:53:57.061Z,81.24
2023-01-13T09:55:08.565Z,81.04
2023-01-13T09:55:57.041Z,81.04
2023-01-13T09:56:58.047Z,81.04
2023-01-13T09:57:57.135Z,80.93
2023-01-13T09:58:56.996Z,81.14
2023-01-13T09:59:57.009Z,81.10
2023-01-13T10:00:57.020Z,81.14
2023-01-13T10:01:56.974Z,80.79
2023-01-13T10:02:57.165Z,80.38
2023-01-13T10:03:56.957Z,80.49
2023-01-13T10:04:56.965Z,80.38
2023-01-13T10:05:57.189Z,80.38
2023-01-13T10:06:57.081Z,80.28
2023-01-13T10:07:56.914Z,80.07
2023-01-13T10:08:56.887Z,79.97
2023-01-13T10:09:56.898Z,80.07
2023-01-13T10:10:56.881Z,80.18
2023-01-13T10:11:56.908Z,80.18
2023-01-13T10:12:56.852Z,79.97
2023-01-13T10:13:56.832Z,79.73
2023-01-13T10:14:56.834Z,79.63
2023-01-13T10:15:56.828Z,79.32
2023-01-13T10:16:56.847Z,79.22
2023-01-13T10:17:56.799Z,79.22
2023-01-13T10:18:56.770Z,79.32
2023-01-13T10:19:56.773Z,79.32
2023-01-13T10:20:56.759Z,79.32
2023-01-13T10:21:56.775Z,79.01
2023-01-13T10:22:56.756Z,79.01
2023-01-13T10:23:56.731Z,79.22
2023-01-13T10:24:56.749Z,79.11
2023-01-13T10:25:56.725Z,79.01
2023-01-13T10:26:56.745Z,78.70
2023-01-13T10:27:56.674Z,78.39
2023-01-13T10:28:56.790Z,78.36
2023-01-13T10:29:56.673Z,78.36
2023-01-13T10:30:56.732Z,78.25
2023-01-13T10:31:56.643Z,78.05
2023-01-13T10:32:56.646Z,78.16
2023-01-13T10:33:56.642Z,78.05
2023-01-13T10:34:56.606Z,77.95
2023-01-13T10:35:56.625Z,77.91
2023-01-13T10:36:56.588Z,78.02
2023-01-13T10:37:56.571Z,77.50
2023-01-13T10:38:57.863Z,77.40
2023-01-13T10:39:56.561Z,77.40
2023-01-13T10:40:56.551Z,77.40
2023-01-13T10:41:56.824Z,77.26
2023-01-13T10:42:56.517Z,77.16
2023-01-13T10:43:56.516Z,77.26
2023-01-13T10:44:56.736Z,76.95
2023-01-13T10:45:56.638Z,76.75
2023-01-13T10:46:56.769Z,76.54
2023-01-13T10:47:56.676Z,76.54
2023-01-13T10:48:56.680Z,76.24
2023-01-13T10:49:56.693Z,76.03
2023-01-13T10:50:56.595Z,75.73
2023-01-13T10:51:56.659Z,75.93
2023-01-13T10:52:56.458Z,75.82
2023-01-13T10:53:56.404Z,75.73
2023-01-13T10:54:56.528Z,76.03
2023-01-13T10:55:56.399Z,76.24
2023-01-13T10:56:56.398Z,76.34
2023-01-13T10:57:56.354Z,76.44
2023-01-13T10:58:56.402Z,76.34
2023-01-13T10:59:56.388Z,76.24
2023-01-13T11:00:56.337Z,75.73
2023-01-13T11:01:56.337Z,76.24
2023-01-13T11:02:56.401Z,76.34
2023-01-13T11:03:56.281Z,76.65
2023-01-13T11:04:56.352Z,77.57
2023-01-13T11:05:56.255Z,78.94
2023-01-13T11:06:56.252Z,79.45
2023-01-13T11:07:56.266Z,79.75
2023-01-13T11:08:56.242Z,79.28
2023-01-13T11:09:56.215Z,79.59
2023-01-13T11:10:56.269Z,79.69
2023-01-13T11:11:56.184Z,79.80
2023-01-13T11:12:56.211Z,79.08
2023-01-13T11:13:56.209Z,78.67
2023-01-13T11:14:56.189Z,78.25
2023-01-13T11:15:56.246Z,78.25
2023-01-13T11:16:56.166Z,77.33
2023-01-13T11:17:56.133Z,77.03
2023-01-13T11:18:56.132Z,77.09
2023-01-13T11:19:56.139Z,77.29
2023-01-13T11:20:56.140Z,77.50
2023-01-13T11:21:56.138Z,77.81
2023-01-13T11:22:56.098Z,77.50
2023-01-13T11:23:56.114Z,77.40
2023-01-13T11:24:56.069Z,77.20
2023-01-13T11:25:57.016Z,76.68
2023-01-13T11:26:56.047Z,76.17
2023-01-13T11:27:56.051Z,76.37
2023-01-13T11:28:56.007Z,76.17
2023-01-13T11:29:56.003Z,76.37
2023-01-13T11:30:56.033Z,76.48
2023-01-13T11:31:55.990Z,76.58
2023-01-13T11:32:55.984Z,76.17
2023-01-13T11:33:55.969Z,76.07
2023-01-13T11:34:55.991Z,76.17
2023-01-13T11:35:55.982Z,76.07
2023-01-13T11:36:55.943Z,76.27
2023-01-13T11:37:55.948Z,76.17
2023-01-13T11:38:55.958Z,75.96
2023-01-13T11:39:55.899Z,76.14
2023-01-13T11:40:55.917Z,76.03
2023-01-13T11:41:55.918Z,75.86
2023-01-13T11:42:55.914Z,75.56
2023-01-13T11:43:55.875Z,75.45
2023-01-13T11:44:55.862Z,75.86
2023-01-13T11:45:55.817Z,77.09
2023-01-13T11:46:55.866Z,78.02
2023-01-13T11:47:55.919Z,78.02
2023-01-13T11:48:55.812Z,78.77
2023-01-13T11:49:55.797Z,79.28
2023-01-13T11:50:55.787Z,79.69
2023-01-13T11:51:55.775Z,80.00
2023-01-13T11:52:55.741Z,80.65
2023-01-13T11:53:55.764Z,81.27
2023-01-13T11:54:55.746Z,81.68
2023-01-13T11:55:55.721Z,82.09
2023-01-13T11:56:55.812Z,82.50
2023-01-13T11:57:55.754Z,82.81
2023-01-13T11:58:55.844Z,83.05
2023-01-13T11:59:55.687Z,83.26
2023-01-13T12:00:55.705Z,83.98
2023-01-13T12:01:55.700Z,84.80
2023-01-13T12:02:55.663Z,85.76
2023-01-13T12:03:55.730Z,86.38
2023-01-13T12:04:56.598Z,86.79
2023-01-13T12:05:56.138Z,86.83
2023-01-13T12:06:55.597Z,86.93
2023-01-13T12:07:55.666Z,86.93
2023-01-13T12:08:55.611Z,87.34
2023-01-13T12:09:55.641Z,88.27
2023-01-13T12:10:55.578Z,89.09
2023-01-13T12:11:55.737Z,89.95
2023-01-13T12:12:55.543Z,90.78
2023-01-13T12:13:55.508Z,91.70
2023-01-13T12:14:55.506Z,92.57
2023-01-13T12:15:55.517Z,93.18
2023-01-13T12:16:55.520Z,93.84
2023-01-13T12:17:55.503Z,94.36
2023-01-13T12:18:55.938Z,94.60
2023-01-13T12:19:55.446Z,95.02
2023-01-13T12:20:56.075Z,95.23
2023-01-13T12:21:55.427Z,95.74
2023-01-13T12:22:55.680Z,95.95
2023-01-13T12:23:55.437Z,96.20
2023-01-13T12:24:55.404Z,96.30
2023-01-13T12:25:55.385Z,96.20
2023-01-13T12:26:55.382Z,96.45
2023-01-13T12:27:55.366Z,96.34
2023-01-13T12:28:56.244Z,96.34
2023-01-13T12:29:55.347Z,96.45
2023-01-13T12:30:55.324Z,96.70
2023-01-13T12:31:55.409Z,97.01
2023-01-13T12:32:55.318Z,97.52
2023-01-13T12:33:55.420Z,97.73
2023-01-13T12:34:55.320Z,98.03
2023-01-13T12:35:55.281Z,98.24
2023-01-13T12:36:55.262Z,98.45
2023-01-13T12:37:55.270Z,98.66
2023-01-13T12:38:55.263Z,98.76
2023-01-13T12:39:55.223Z,99.07
2023-01-13T12:40:55.248Z,99.13
2023-01-13T12:41:55.195Z,99.23
2023-01-13T12:42:55.221Z,99.13
2023-01-13T12:43:55.205Z,99.13
2023-01-13T12:44:55.172Z,99.02
2023-01-13T12:45:55.868Z,98.92
2023-01-13T12:46:55.153Z,98.92
2023-01-13T12:47:55.136Z,98.92
2023-01-13T12:48:55.186Z,98.92
2023-01-13T12:49:55.117Z,98.92
2023-01-13T12:50:55.297Z,98.61
2023-01-13T12:51:55.126Z,98.46